Terminal Aerodrome Forecast
Issued by NWS

Home | Current Version | Previous Version | Text Only | Print | Product List | Glossary On
Versions: 1 2 3 4 5 6 7 8 9 10 11 12 13 14 15 16 17 18 19 20
000
FTUS43 KAPX 171100
TAFTVC
TAF
KTVC 171120Z 1712/1812 14012G21KT P6SM SCT060 OVC100
     FM171300 13011G21KT P6SM VCSH BKN050 BKN100
     FM180200 27005KT P6SM BKN028 OVC040=

USA.gov is the U.S. government's official web portal to all federal, state and local government web resources and services.